sensor_id;sensor_type;location;lat;lon;timestamp;P1;durP1;ratioP1;P2;durP2;ratioP2
69026;SDS011;56080;47.594;19.116;2022-10-16T00:02:35;1443.80;;;879.00;;
69026;SDS011;56080;47.594;19.116;2022-10-16T00:07:36;1441.90;;;946.00;;
69026;SDS011;56080;47.594;19.116;2022-10-16T00:12:35;1441.90;;;946.00;;
69026;SDS011;56080;47.594;19.116;2022-10-16T00:17:35;1455.80;;;999.90;;
69026;SDS011;56080;47.594;19.116;2022-10-16T00:22:36;1455.80;;;999.90;;
69026;SDS011;56080;47.594;19.116;2022-10-16T00:27:35;1476.10;;;987.80;;
69026;SDS011;56080;47.594;19.116;2022-10-16T00:32:36;1476.10;;;987.80;;
69026;SDS011;56080;47.594;19.116;2022-10-16T00:37:35;1425.10;;;981.30;;
69026;SDS011;56080;47.594;19.116;2022-10-16T00:42:36;1425.10;;;981.30;;
69026;SDS011;56080;47.594;19.116;2022-10-16T00:47:40;1431.00;;;991.50;;
69026;SDS011;56080;47.594;19.116;2022-10-16T00:52:36;1431.00;;;991.50;;
69026;SDS011;56080;47.594;19.116;2022-10-16T00:57:36;1433.00;;;921.60;;
69026;SDS011;56080;47.594;19.116;2022-10-16T01:02:35;1433.00;;;921.60;;
69026;SDS011;56080;47.594;19.116;2022-10-16T01:12:46;1434.50;;;922.70;;
69026;SDS011;56080;47.594;19.116;2022-10-16T01:17:43;1428.30;;;945.90;;
69026;SDS011;56080;47.594;19.116;2022-10-16T01:22:44;1428.30;;;945.90;;
69026;SDS011;56080;47.594;19.116;2022-10-16T01:27:39;1381.30;;;856.50;;
69026;SDS011;56080;47.594;19.116;2022-10-16T01:32:47;1381.30;;;856.50;;
69026;SDS011;56080;47.594;19.116;2022-10-16T01:37:48;1409.90;;;969.60;;
69026;SDS011;56080;47.594;19.116;2022-10-16T01:42:41;1409.90;;;969.60;;
69026;SDS011;56080;47.594;19.116;2022-10-16T01:47:36;1406.70;;;923.50;;
69026;SDS011;56080;47.594;19.116;2022-10-16T01:52:38;1406.70;;;923.50;;
69026;SDS011;56080;47.594;19.116;2022-10-16T01:57:36;1404.40;;;956.40;;
69026;SDS011;56080;47.594;19.116;2022-10-16T02:02:38;1404.40;;;956.40;;
69026;SDS011;56080;47.594;19.116;2022-10-16T02:07:35;1385.20;;;843.50;;
69026;SDS011;56080;47.594;19.116;2022-10-16T02:12:41;1385.20;;;843.50;;
69026;SDS011;56080;47.594;19.116;2022-10-16T02:17:37;1395.90;;;868.20;;
69026;SDS011;56080;47.594;19.116;2022-10-16T02:22:39;1395.90;;;868.20;;
69026;SDS011;56080;47.594;19.116;2022-10-16T02:32:40;1397.70;;;860.10;;
69026;SDS011;56080;47.594;19.116;2022-10-16T02:37:36;1481.80;;;876.80;;
69026;SDS011;56080;47.594;19.116;2022-10-16T02:42:38;1481.80;;;876.80;;
69026;SDS011;56080;47.594;19.116;2022-10-16T02:47:35;1439.60;;;846.70;;
69026;SDS011;56080;47.594;19.116;2022-10-16T02:52:36;1439.60;;;846.70;;
69026;SDS011;56080;47.594;19.116;2022-10-16T02:57:36;1408.30;;;824.40;;
69026;SDS011;56080;47.594;19.116;2022-10-16T03:02:35;1408.30;;;824.40;;
69026;SDS011;56080;47.594;19.116;2022-10-16T03:07:36;1427.60;;;855.60;;
69026;SDS011;56080;47.594;19.116;2022-10-16T03:12:37;1427.60;;;855.60;;
69026;SDS011;56080;47.594;19.116;2022-10-16T03:17:36;1401.70;;;838.20;;
69026;SDS011;56080;47.594;19.116;2022-10-16T03:22:35;1401.70;;;838.20;;
69026;SDS011;56080;47.594;19.116;2022-10-16T03:27:36;1427.80;;;874.40;;
69026;SDS011;56080;47.594;19.116;2022-10-16T03:32:35;1427.80;;;874.40;;
69026;SDS011;56080;47.594;19.116;2022-10-16T03:37:36;1426.90;;;914.20;;
69026;SDS011;56080;47.594;19.116;2022-10-16T03:42:35;1426.90;;;914.20;;
69026;SDS011;56080;47.594;19.116;2022-10-16T03:47:36;1316.50;;;617.00;;
69026;SDS011;56080;47.594;19.116;2022-10-16T03:52:36;1316.50;;;617.00;;
69026;SDS011;56080;47.594;19.116;2022-10-16T03:57:36;1229.30;;;531.10;;
69026;SDS011;56080;47.594;19.116;2022-10-16T04:02:35;1229.30;;;531.10;;
69026;SDS011;56080;47.594;19.116;2022-10-16T04:07:36;1281.20;;;593.70;;
69026;SDS011;56080;47.594;19.116;2022-10-16T04:12:36;1281.20;;;593.70;;
69026;SDS011;56080;47.594;19.116;2022-10-16T04:17:36;1296.60;;;610.70;;
69026;SDS011;56080;47.594;19.116;2022-10-16T04:22:35;1296.60;;;610.70;;
69026;SDS011;56080;47.594;19.116;2022-10-16T04:27:36;1320.50;;;618.10;;
69026;SDS011;56080;47.594;19.116;2022-10-16T04:32:36;1320.50;;;618.10;;
69026;SDS011;56080;47.594;19.116;2022-10-16T04:37:36;1379.80;;;695.00;;
69026;SDS011;56080;47.594;19.116;2022-10-16T04:42:35;1379.80;;;695.00;;
69026;SDS011;56080;47.594;19.116;2022-10-16T04:47:36;1403.30;;;743.00;;
69026;SDS011;56080;47.594;19.116;2022-10-16T04:52:36;1403.30;;;743.00;;
69026;SDS011;56080;47.594;19.116;2022-10-16T04:57:37;1414.40;;;741.40;;
69026;SDS011;56080;47.594;19.116;2022-10-16T05:02:35;1414.40;;;741.40;;
69026;SDS011;56080;47.594;19.116;2022-10-16T05:07:36;1412.40;;;765.00;;
69026;SDS011;56080;47.594;19.116;2022-10-16T05:12:36;1412.40;;;765.00;;
69026;SDS011;56080;47.594;19.116;2022-10-16T05:17:36;1465.80;;;852.00;;
69026;SDS011;56080;47.594;19.116;2022-10-16T05:22:35;1465.80;;;852.00;;
69026;SDS011;56080;47.594;19.116;2022-10-16T05:27:36;1435.60;;;805.40;;
69026;SDS011;56080;47.594;19.116;2022-10-16T05:32:35;1435.60;;;805.40;;
69026;SDS011;56080;47.594;19.116;2022-10-16T05:37:37;1426.90;;;894.50;;
69026;SDS011;56080;47.594;19.116;2022-10-16T05:42:35;1426.90;;;894.50;;
69026;SDS011;56080;47.594;19.116;2022-10-16T05:47:36;1411.30;;;888.80;;
69026;SDS011;56080;47.594;19.116;2022-10-16T05:52:36;1411.30;;;888.80;;
69026;SDS011;56080;47.594;19.116;2022-10-16T05:57:36;1386.70;;;944.50;;
69026;SDS011;56080;47.594;19.116;2022-10-16T06:02:35;1386.70;;;944.50;;
69026;SDS011;56080;47.594;19.116;2022-10-16T06:07:36;1405.60;;;975.40;;
69026;SDS011;56080;47.594;19.116;2022-10-16T06:12:36;1405.60;;;975.40;;
69026;SDS011;56080;47.594;19.116;2022-10-16T06:17:36;1454.60;;;894.00;;
69026;SDS011;56080;47.594;19.116;2022-10-16T06:22:35;1454.60;;;894.00;;
69026;SDS011;56080;47.594;19.116;2022-10-16T06:27:38;1462.00;;;913.30;;
69026;SDS011;56080;47.594;19.116;2022-10-16T06:32:36;1462.00;;;913.30;;
69026;SDS011;56080;47.594;19.116;2022-10-16T06:37:36;1395.10;;;736.90;;
69026;SDS011;56080;47.594;19.116;2022-10-16T06:42:36;1395.10;;;736.90;;
69026;SDS011;56080;47.594;19.116;2022-10-16T06:47:35;1396.90;;;704.80;;
69026;SDS011;56080;47.594;19.116;2022-10-16T06:52:38;1396.90;;;704.80;;
69026;SDS011;56080;47.594;19.116;2022-10-16T06:57:36;1401.90;;;712.70;;
69026;SDS011;56080;47.594;19.116;2022-10-16T07:02:36;1401.90;;;712.70;;
69026;SDS011;56080;47.594;19.116;2022-10-16T07:07:36;1397.60;;;690.20;;
69026;SDS011;56080;47.594;19.116;2022-10-16T07:12:36;1397.60;;;690.20;;
69026;SDS011;56080;47.594;19.116;2022-10-16T07:17:35;1498.60;;;825.30;;
69026;SDS011;56080;47.594;19.116;2022-10-16T07:22:37;1498.60;;;825.30;;
69026;SDS011;56080;47.594;19.116;2022-10-16T07:27:36;1481.20;;;823.20;;
69026;SDS011;56080;47.594;19.116;2022-10-16T07:32:36;1481.20;;;823.20;;
69026;SDS011;56080;47.594;19.116;2022-10-16T07:37:36;1490.70;;;835.70;;
69026;SDS011;56080;47.594;19.116;2022-10-16T07:42:38;1490.70;;;835.70;;
69026;SDS011;56080;47.594;19.116;2022-10-16T07:47:36;1467.40;;;790.90;;
69026;SDS011;56080;47.594;19.116;2022-10-16T07:52:35;1467.40;;;790.90;;
69026;SDS011;56080;47.594;19.116;2022-10-16T07:57:36;1457.00;;;748.30;;
69026;SDS011;56080;47.594;19.116;2022-10-16T08:02:35;1457.00;;;748.30;;
69026;SDS011;56080;47.594;19.116;2022-10-16T08:07:36;1414.60;;;699.40;;
69026;SDS011;56080;47.594;19.116;2022-10-16T08:12:37;1414.60;;;699.40;;
69026;SDS011;56080;47.594;19.116;2022-10-16T08:17:36;1437.30;;;702.00;;
69026;SDS011;56080;47.594;19.116;2022-10-16T08:22:35;1437.30;;;702.00;;
69026;SDS011;56080;47.594;19.116;2022-10-16T08:27:44;1515.90;;;708.80;;
69026;SDS011;56080;47.594;19.116;2022-10-16T08:32:40;1515.90;;;708.80;;
69026;SDS011;56080;47.594;19.116;2022-10-16T08:37:40;1577.30;;;747.20;;
69026;SDS011;56080;47.594;19.116;2022-10-16T08:42:45;1577.30;;;747.20;;
69026;SDS011;56080;47.594;19.116;2022-10-16T08:52:40;1596.80;;;883.10;;
69026;SDS011;56080;47.594;19.116;2022-10-16T08:57:36;1548.20;;;760.30;;
69026;SDS011;56080;47.594;19.116;2022-10-16T09:02:47;1548.20;;;760.30;;
69026;SDS011;56080;47.594;19.116;2022-10-16T09:22:37;1496.40;;;659.60;;
69026;SDS011;56080;47.594;19.116;2022-10-16T09:27:36;1504.30;;;661.50;;
69026;SDS011;56080;47.594;19.116;2022-10-16T09:32:36;1504.30;;;661.50;;
69026;SDS011;56080;47.594;19.116;2022-10-16T09:37:36;1500.50;;;661.70;;
69026;SDS011;56080;47.594;19.116;2022-10-16T09:42:45;1500.50;;;661.70;;
69026;SDS011;56080;47.594;19.116;2022-10-16T09:47:39;1525.20;;;676.40;;
69026;SDS011;56080;47.594;19.116;2022-10-16T09:52:35;1525.20;;;676.40;;
69026;SDS011;56080;47.594;19.116;2022-10-16T09:57:37;1566.30;;;773.10;;
69026;SDS011;56080;47.594;19.116;2022-10-16T10:02:36;1566.30;;;773.10;;
69026;SDS011;56080;47.594;19.116;2022-10-16T10:07:38;1558.90;;;781.70;;
69026;SDS011;56080;47.594;19.116;2022-10-16T10:12:38;1558.90;;;781.70;;
69026;SDS011;56080;47.594;19.116;2022-10-16T10:17:45;1558.60;;;763.70;;
69026;SDS011;56080;47.594;19.116;2022-10-16T10:22:46;1558.60;;;763.70;;
69026;SDS011;56080;47.594;19.116;2022-10-16T10:42:48;1547.30;;;748.20;;
69026;SDS011;56080;47.594;19.116;2022-10-16T10:52:51;1514.00;;;732.00;;
69026;SDS011;56080;47.594;19.116;2022-10-16T11:02:45;1510.90;;;724.20;;
69026;SDS011;56080;47.594;19.116;2022-10-16T11:07:41;1555.30;;;751.40;;
69026;SDS011;56080;47.594;19.116;2022-10-16T11:12:40;1555.30;;;751.40;;
69026;SDS011;56080;47.594;19.116;2022-10-16T11:22:38;1555.20;;;774.80;;
69026;SDS011;56080;47.594;19.116;2022-10-16T11:27:50;1570.80;;;791.00;;
69026;SDS011;56080;47.594;19.116;2022-10-16T11:37:43;1575.30;;;800.10;;
69026;SDS011;56080;47.594;19.116;2022-10-16T11:42:37;1575.30;;;800.10;;
69026;SDS011;56080;47.594;19.116;2022-10-16T11:47:51;1564.50;;;787.90;;
69026;SDS011;56080;47.594;19.116;2022-10-16T11:57:40;1565.40;;;750.00;;
69026;SDS011;56080;47.594;19.116;2022-10-16T12:02:52;1565.40;;;750.00;;
69026;SDS011;56080;47.594;19.116;2022-10-16T12:07:46;1596.40;;;788.10;;
69026;SDS011;56080;47.594;19.116;2022-10-16T12:12:38;1596.40;;;788.10;;
69026;SDS011;56080;47.594;19.116;2022-10-16T12:22:41;1594.60;;;797.40;;
69026;SDS011;56080;47.594;19.116;2022-10-16T12:32:53;1600.90;;;793.70;;
69026;SDS011;56080;47.594;19.116;2022-10-16T12:37:38;1592.10;;;784.50;;
69026;SDS011;56080;47.594;19.116;2022-10-16T12:42:36;1592.10;;;784.50;;
69026;SDS011;56080;47.594;19.116;2022-10-16T12:47:51;1617.60;;;768.40;;
69026;SDS011;56080;47.594;19.116;2022-10-16T12:52:44;1617.60;;;768.40;;
69026;SDS011;56080;47.594;19.116;2022-10-16T13:02:44;1661.40;;;791.00;;
69026;SDS011;56080;47.594;19.116;2022-10-16T13:27:55;1714.50;;;831.90;;
69026;SDS011;56080;47.594;19.116;2022-10-16T13:32:36;1714.50;;;831.90;;
69026;SDS011;56080;47.594;19.116;2022-10-16T13:37:38;1654.00;;;811.00;;
69026;SDS011;56080;47.594;19.116;2022-10-16T13:42:39;1654.00;;;811.00;;
69026;SDS011;56080;47.594;19.116;2022-10-16T13:47:38;1700.30;;;813.10;;
69026;SDS011;56080;47.594;19.116;2022-10-16T13:52:37;1700.30;;;813.10;;
69026;SDS011;56080;47.594;19.116;2022-10-16T13:57:40;1670.90;;;797.60;;
69026;SDS011;56080;47.594;19.116;2022-10-16T14:02:49;1670.90;;;797.60;;
69026;SDS011;56080;47.594;19.116;2022-10-16T14:07:37;1661.70;;;833.40;;
69026;SDS011;56080;47.594;19.116;2022-10-16T14:12:38;1661.70;;;833.40;;
69026;SDS011;56080;47.594;19.116;2022-10-16T14:17:38;1657.60;;;795.10;;
69026;SDS011;56080;47.594;19.116;2022-10-16T14:22:40;1657.60;;;795.10;;
69026;SDS011;56080;47.594;19.116;2022-10-16T14:27:36;1727.80;;;821.00;;
69026;SDS011;56080;47.594;19.116;2022-10-16T14:32:36;1727.80;;;821.00;;
69026;SDS011;56080;47.594;19.116;2022-10-16T14:37:39;1725.40;;;824.40;;
69026;SDS011;56080;47.594;19.116;2022-10-16T14:47:37;1642.50;;;770.00;;
69026;SDS011;56080;47.594;19.116;2022-10-16T14:52:36;1642.50;;;770.00;;
69026;SDS011;56080;47.594;19.116;2022-10-16T14:57:42;1679.20;;;806.20;;
69026;SDS011;56080;47.594;19.116;2022-10-16T15:02:44;1679.20;;;806.20;;
69026;SDS011;56080;47.594;19.116;2022-10-16T15:12:36;1672.90;;;789.10;;
69026;SDS011;56080;47.594;19.116;2022-10-16T15:17:38;1658.40;;;780.20;;
69026;SDS011;56080;47.594;19.116;2022-10-16T15:22:36;1658.40;;;780.20;;
69026;SDS011;56080;47.594;19.116;2022-10-16T15:27:36;1616.60;;;778.90;;
69026;SDS011;56080;47.594;19.116;2022-10-16T15:32:36;1616.60;;;778.90;;
69026;SDS011;56080;47.594;19.116;2022-10-16T15:37:38;1661.00;;;820.60;;
69026;SDS011;56080;47.594;19.116;2022-10-16T15:42:36;1661.00;;;820.60;;
69026;SDS011;56080;47.594;19.116;2022-10-16T15:47:38;1726.70;;;879.60;;
69026;SDS011;56080;47.594;19.116;2022-10-16T15:52:36;1726.70;;;879.60;;
69026;SDS011;56080;47.594;19.116;2022-10-16T15:57:37;1617.20;;;803.30;;
69026;SDS011;56080;47.594;19.116;2022-10-16T16:02:38;1617.20;;;803.30;;
69026;SDS011;56080;47.594;19.116;2022-10-16T16:07:38;1578.80;;;800.30;;
69026;SDS011;56080;47.594;19.116;2022-10-16T16:12:36;1578.80;;;800.30;;
69026;SDS011;56080;47.594;19.116;2022-10-16T16:17:36;1579.70;;;796.70;;
69026;SDS011;56080;47.594;19.116;2022-10-16T16:22:36;1579.70;;;796.70;;
69026;SDS011;56080;47.594;19.116;2022-10-16T16:27:39;1576.30;;;790.80;;
69026;SDS011;56080;47.594;19.116;2022-10-16T16:32:36;1576.30;;;790.80;;
69026;SDS011;56080;47.594;19.116;2022-10-16T16:37:36;1577.00;;;787.20;;
69026;SDS011;56080;47.594;19.116;2022-10-16T16:42:36;1577.00;;;787.20;;
69026;SDS011;56080;47.594;19.116;2022-10-16T16:47:36;1614.60;;;808.60;;
69026;SDS011;56080;47.594;19.116;2022-10-16T16:52:38;1614.60;;;808.60;;
69026;SDS011;56080;47.594;19.116;2022-10-16T16:57:36;1639.70;;;816.80;;
69026;SDS011;56080;47.594;19.116;2022-10-16T17:02:36;1639.70;;;816.80;;
69026;SDS011;56080;47.594;19.116;2022-10-16T17:07:40;1642.30;;;833.70;;
69026;SDS011;56080;47.594;19.116;2022-10-16T17:12:36;1642.30;;;833.70;;
69026;SDS011;56080;47.594;19.116;2022-10-16T17:17:40;1648.10;;;838.20;;
69026;SDS011;56080;47.594;19.116;2022-10-16T17:27:40;1606.90;;;832.30;;
69026;SDS011;56080;47.594;19.116;2022-10-16T17:32:38;1606.90;;;832.30;;
69026;SDS011;56080;47.594;19.116;2022-10-16T17:42:38;1574.80;;;802.00;;
69026;SDS011;56080;47.594;19.116;2022-10-16T17:47:39;1565.50;;;795.10;;
69026;SDS011;56080;47.594;19.116;2022-10-16T17:52:36;1565.50;;;795.10;;
69026;SDS011;56080;47.594;19.116;2022-10-16T17:57:36;1483.40;;;737.40;;
69026;SDS011;56080;47.594;19.116;2022-10-16T18:02:36;1483.40;;;737.40;;
69026;SDS011;56080;47.594;19.116;2022-10-16T18:07:36;1457.50;;;720.90;;
69026;SDS011;56080;47.594;19.116;2022-10-16T18:12:38;1457.50;;;720.90;;
69026;SDS011;56080;47.594;19.116;2022-10-16T18:17:38;1529.60;;;776.80;;
69026;SDS011;56080;47.594;19.116;2022-10-16T18:22:41;1529.60;;;776.80;;
69026;SDS011;56080;47.594;19.116;2022-10-16T18:27:36;1556.60;;;801.50;;
69026;SDS011;56080;47.594;19.116;2022-10-16T18:32:37;1556.60;;;801.50;;
69026;SDS011;56080;47.594;19.116;2022-10-16T18:37:39;1521.60;;;830.20;;
69026;SDS011;56080;47.594;19.116;2022-10-16T18:42:36;1521.60;;;830.20;;
69026;SDS011;56080;47.594;19.116;2022-10-16T18:47:37;1489.70;;;834.60;;
69026;SDS011;56080;47.594;19.116;2022-10-16T18:52:38;1489.70;;;834.60;;
69026;SDS011;56080;47.594;19.116;2022-10-16T18:57:37;1422.10;;;756.90;;
69026;SDS011;56080;47.594;19.116;2022-10-16T19:02:39;1422.10;;;756.90;;
69026;SDS011;56080;47.594;19.116;2022-10-16T19:07:39;1505.30;;;818.60;;
69026;SDS011;56080;47.594;19.116;2022-10-16T19:12:36;1505.30;;;818.60;;
69026;SDS011;56080;47.594;19.116;2022-10-16T19:17:36;1538.70;;;843.40;;
69026;SDS011;56080;47.594;19.116;2022-10-16T19:22:46;1538.70;;;843.40;;
69026;SDS011;56080;47.594;19.116;2022-10-16T19:27:35;1436.40;;;777.50;;
69026;SDS011;56080;47.594;19.116;2022-10-16T19:32:36;1436.40;;;777.50;;
69026;SDS011;56080;47.594;19.116;2022-10-16T19:37:36;1486.30;;;801.20;;
69026;SDS011;56080;47.594;19.116;2022-10-16T19:42:36;1486.30;;;801.20;;
69026;SDS011;56080;47.594;19.116;2022-10-16T19:52:38;1495.50;;;844.30;;
69026;SDS011;56080;47.594;19.116;2022-10-16T19:57:36;1491.60;;;987.40;;
69026;SDS011;56080;47.594;19.116;2022-10-16T20:02:38;1491.60;;;987.40;;
69026;SDS011;56080;47.594;19.116;2022-10-16T20:07:41;1487.40;;;989.30;;
69026;SDS011;56080;47.594;19.116;2022-10-16T20:12:36;1487.40;;;989.30;;
69026;SDS011;56080;47.594;19.116;2022-10-16T20:17:36;1484.40;;;988.60;;
69026;SDS011;56080;47.594;19.116;2022-10-16T20:22:36;1484.40;;;988.60;;
69026;SDS011;56080;47.594;19.116;2022-10-16T20:27:38;1482.30;;;876.20;;
69026;SDS011;56080;47.594;19.116;2022-10-16T20:32:35;1482.30;;;876.20;;
69026;SDS011;56080;47.594;19.116;2022-10-16T20:37:36;1481.90;;;860.90;;
69026;SDS011;56080;47.594;19.116;2022-10-16T20:42:36;1481.90;;;860.90;;
69026;SDS011;56080;47.594;19.116;2022-10-16T20:47:36;1396.30;;;784.30;;
69026;SDS011;56080;47.594;19.116;2022-10-16T20:52:36;1396.30;;;784.30;;
69026;SDS011;56080;47.594;19.116;2022-10-16T20:57:36;1429.80;;;837.50;;
69026;SDS011;56080;47.594;19.116;2022-10-16T21:02:36;1429.80;;;837.50;;
69026;SDS011;56080;47.594;19.116;2022-10-16T21:07:36;1474.90;;;945.80;;
69026;SDS011;56080;47.594;19.116;2022-10-16T21:12:37;1474.90;;;945.80;;
69026;SDS011;56080;47.594;19.116;2022-10-16T21:17:36;1493.90;;;921.60;;
69026;SDS011;56080;47.594;19.116;2022-10-16T21:22:38;1493.90;;;921.60;;
69026;SDS011;56080;47.594;19.116;2022-10-16T21:27:36;1510.80;;;871.20;;
69026;SDS011;56080;47.594;19.116;2022-10-16T21:32:37;1510.80;;;871.20;;
69026;SDS011;56080;47.594;19.116;2022-10-16T21:37:36;1456.00;;;809.10;;
69026;SDS011;56080;47.594;19.116;2022-10-16T21:42:36;1456.00;;;809.10;;
69026;SDS011;56080;47.594;19.116;2022-10-16T21:47:36;1424.10;;;806.90;;
69026;SDS011;56080;47.594;19.116;2022-10-16T21:52:36;1424.10;;;806.90;;
69026;SDS011;56080;47.594;19.116;2022-10-16T21:57:36;1441.40;;;809.90;;
69026;SDS011;56080;47.594;19.116;2022-10-16T22:02:36;1441.40;;;809.90;;
69026;SDS011;56080;47.594;19.116;2022-10-16T22:07:36;1406.60;;;825.30;;
69026;SDS011;56080;47.594;19.116;2022-10-16T22:12:37;1406.60;;;825.30;;
69026;SDS011;56080;47.594;19.116;2022-10-16T22:17:36;1461.60;;;867.40;;
69026;SDS011;56080;47.594;19.116;2022-10-16T22:22:36;1461.60;;;867.40;;
69026;SDS011;56080;47.594;19.116;2022-10-16T22:27:37;1449.30;;;897.90;;
69026;SDS011;56080;47.594;19.116;2022-10-16T22:32:35;1449.30;;;897.90;;
69026;SDS011;56080;47.594;19.116;2022-10-16T22:37:36;1476.20;;;943.00;;
69026;SDS011;56080;47.594;19.116;2022-10-16T22:42:36;1476.20;;;943.00;;
69026;SDS011;56080;47.594;19.116;2022-10-16T22:47:36;1499.00;;;962.20;;
69026;SDS011;56080;47.594;19.116;2022-10-16T22:52:36;1499.00;;;962.20;;
69026;SDS011;56080;47.594;19.116;2022-10-16T22:57:35;1448.70;;;884.70;;
69026;SDS011;56080;47.594;19.116;2022-10-16T23:02:36;1448.70;;;884.70;;
69026;SDS011;56080;47.594;19.116;2022-10-16T23:07:37;1459.00;;;982.20;;
69026;SDS011;56080;47.594;19.116;2022-10-16T23:12:36;1459.00;;;982.20;;
69026;SDS011;56080;47.594;19.116;2022-10-16T23:17:36;1348.10;;;999.90;;
69026;SDS011;56080;47.594;19.116;2022-10-16T23:22:36;1348.10;;;999.90;;
69026;SDS011;56080;47.594;19.116;2022-10-16T23:27:36;1363.40;;;974.30;;
69026;SDS011;56080;47.594;19.116;2022-10-16T23:32:36;1363.40;;;974.30;;
69026;SDS011;56080;47.594;19.116;2022-10-16T23:37:36;1341.70;;;999.40;;
69026;SDS011;56080;47.594;19.116;2022-10-16T23:42:36;1341.70;;;999.40;;
69026;SDS011;56080;47.594;19.116;2022-10-16T23:47:36;1236.90;;;975.00;;
69026;SDS011;56080;47.594;19.116;2022-10-16T23:57:36;1248.20;;;999.90;;
